Terminal Aerodrome Forecast
Issued by NWS Cleveland, OH

Home | Current Version | Previous Version | Graphics & Text | Print | Product List | Glossary Off
Versions: 1 2 3 4 5 6 7 8 9 10 11 12 13

000
FTUS41 KCLE 211700
TAFERI
TAF
KERI 211731Z 2118/2218 19004KT P6SM OVC025
     FM212200 12004KT P6SM OVC028
     FM220400 14008KT P6SM FEW035 OVC250=

USA.gov is the U.S. government's official web portal to all federal, state and local government web resources and services.